Time;durP1;ratioP1;P1;durP2;ratioP2;P2;SDS_P1;SDS_P2;PMS_P1;PMS_P2;Temp;Humidity;BMP_temperature;BMP_pressure;BME280_temperature;BME280_humidity;BME280_pressure;Samples;Min_cycle;Max_cycle;Signal;HPM_P1;HPM_P2
2022/07/17 00:00:55;;;;;;;6.57;2.00;;;10.40;99.90;;;;;;5157847;27;20118;-81
2022/07/17 00:03:21;;;;;;;6.82;2.13;;;10.40;99.90;;;;;;5138651;27;20486;-81
2022/07/17 00:05:47;;;;;;;7.78;2.40;;;10.40;99.90;;;;;;5139398;27;20130;-81
2022/07/17 00:08:15;;;;;;;6.70;1.80;;;10.40;99.90;;;;;;5139195;27;20043;-81
2022/07/17 00:10:42;;;;;;;6.90;2.38;;;10.40;99.90;;;;;;5157135;27;20409;-81
2022/07/17 00:13:09;;;;;;;12.80;2.38;;;10.40;99.90;;;;;;5139185;27;20046;-81
2022/07/17 00:15:35;;;;;;;6.13;2.25;;;10.40;99.90;;;;;;5138410;27;20409;-81
2022/07/17 00:18:02;;;;;;;7.75;2.42;;;10.40;99.90;;;;;;5157149;27;20052;-81
2022/07/17 00:20:28;;;;;;;4.47;1.50;;;10.30;99.90;;;;;;5157857;27;20118;-81
2022/07/17 00:22:57;;;;;;;7.28;2.20;;;10.30;99.90;;;;;;5157907;27;20132;-81
2022/07/17 00:25:24;;;;;;;6.35;2.17;;;10.30;99.90;;;;;;5138116;27;20125;-81
2022/07/17 00:27:49;;;;;;;5.63;1.90;;;10.30;99.90;;;;;;5138887;27;20047;-81
2022/07/17 00:30:16;;;;;;;3.45;1.58;;;10.20;99.90;;;;;;5156531;27;20042;-81
2022/07/17 00:32:42;;;;;;;3.97;1.67;;;10.10;99.90;;;;;;5139058;27;20392;-81
2022/07/17 00:35:08;;;;;;;5.18;2.60;;;10.10;99.90;;;;;;5139041;27;20051;-81
2022/07/17 00:37:42;;;;;;;4.57;2.08;;;10.10;99.90;;;;;;5156783;27;20038;-81
2022/07/17 00:40:09;;;;;;;6.85;1.80;;;10.10;99.90;;;;;;5157525;27;20047;-81
2022/07/17 00:42:35;;;;;;;3.55;1.67;;;10.10;99.90;;;;;;5139064;27;20047;-81
2022/07/17 00:45:01;;;;;;;6.18;2.10;;;10.10;99.90;;;;;;5137882;27;20050;-81
2022/07/17 00:47:27;;;;;;;8.30;1.98;;;10.10;99.90;;;;;;5157397;27;20093;-81
2022/07/17 00:49:53;;;;;;;9.00;2.30;;;10.10;99.90;;;;;;5157376;27;20128;-81
2022/07/17 00:52:19;;;;;;;4.82;1.75;;;10.10;99.90;;;;;;5156385;27;20039;-80
2022/07/17 00:54:46;;;;;;;4.85;2.30;;;10.10;99.90;;;;;;5157140;27;20050;-81
2022/07/17 00:57:14;;;;;;;9.30;2.55;;;10.10;99.90;;;;;;5138617;27;20047;-81
2022/07/17 00:59:41;;;;;;;3.33;1.48;;;10.10;99.90;;;;;;5156323;27;20122;-80
2022/07/17 01:02:11;;;;;;;4.38;1.80;;;10.10;99.90;;;;;;5157126;27;20397;-81
2022/07/17 01:04:38;;;;;;;7.88;1.80;;;10.10;99.90;;;;;;5156670;27;20038;-81
2022/07/17 01:07:05;;;;;;;4.13;1.67;;;10.10;99.90;;;;;;5155861;27;20079;-81
2022/07/17 01:09:32;;;;;;;6.32;1.73;;;10.10;99.90;;;;;;5156787;27;20043;-81
2022/07/17 01:11:59;;;;;;;5.07;2.15;;;10.10;99.90;;;;;;5137857;27;20103;-81
2022/07/17 01:14:27;;;;;;;6.97;2.22;;;10.10;99.90;;;;;;5155824;27;20043;-81
2022/07/17 01:16:53;;;;;;;6.30;1.92;;;10.10;99.90;;;;;;5156526;27;20086;-81
2022/07/17 01:19:20;;;;;;;5.88;2.45;;;10.10;99.90;;;;;;5137296;27;20053;-81
2022/07/17 01:21:49;;;;;;;2.63;1.63;;;10.00;99.90;;;;;;5138062;27;20046;-81
2022/07/17 01:24:16;;;;;;;6.43;2.00;;;10.00;99.90;;;;;;5138334;27;20058;-81
2022/07/17 01:26:44;;;;;;;4.30;1.52;;;9.90;99.90;;;;;;5154992;27;20120;-81
2022/07/17 01:29:11;;;;;;;10.00;2.05;;;9.90;99.90;;;;;;5156252;27;20046;-81
2022/07/17 01:31:38;;;;;;;6.13;1.70;;;9.90;99.90;;;;;;5138120;27;20389;-81
2022/07/17 01:34:06;;;;;;;4.72;2.10;;;9.90;99.90;;;;;;5137066;27;20042;-81
2022/07/17 01:36:31;;;;;;;5.40;1.40;;;9.80;99.90;;;;;;5137600;27;20043;-81
2022/07/17 01:38:57;;;;;;;7.18;1.98;;;9.80;99.90;;;;;;5137462;27;20042;-80
2022/07/17 01:41:25;;;;;;;4.55;1.92;;;9.80;99.90;;;;;;5136771;27;20038;-81
2022/07/17 01:43:51;;;;;;;4.82;1.70;;;9.80;99.90;;;;;;5137818;27;20431;-81
2022/07/17 01:46:17;;;;;;;6.22;1.88;;;9.70;99.90;;;;;;5137513;27;20043;-81
2022/07/17 01:48:43;;;;;;;4.78;2.00;;;9.70;99.90;;;;;;5136786;27;20042;-80
2022/07/17 01:51:09;;;;;;;6.28;1.90;;;9.70;99.90;;;;;;5137685;27;20046;-81
2022/07/17 01:53:34;;;;;;;4.03;2.38;;;9.70;99.90;;;;;;5137446;27;20489;-81
2022/07/17 01:56:00;;;;;;;3.95;1.83;;;9.70;99.90;;;;;;5136506;27;20046;-80
2022/07/17 01:58:26;;;;;;;3.75;2.28;;;9.70;99.90;;;;;;5137082;27;20047;-81
2022/07/17 02:00:53;;;;;;;5.38;1.60;;;9.60;99.90;;;;;;5137350;27;20042;-81
2022/07/17 02:03:19;;;;;;;4.13;1.70;;;9.60;99.90;;;;;;5154970;27;20037;-80
2022/07/17 02:05:45;;;;;;;8.10;2.00;;;9.60;99.90;;;;;;5137206;27;20042;-81
2022/07/17 02:08:11;;;;;;;5.85;2.67;;;9.60;99.90;;;;;;5155438;27;20130;-81
2022/07/17 02:10:37;;;;;;;4.85;1.65;;;9.60;99.90;;;;;;5155084;27;20113;-80
2022/07/17 02:13:02;;;;;;;7.30;1.83;;;9.60;99.90;;;;;;5155468;27;20386;-81
2022/07/17 02:15:28;;;;;;;3.33;1.80;;;9.60;99.90;;;;;;5137090;27;20054;-80
2022/07/17 02:17:54;;;;;;;3.45;1.75;;;9.50;99.90;;;;;;5136275;27;20497;-80
2022/07/17 02:20:20;;;;;;;4.57;1.95;;;9.50;99.90;;;;;;5155582;27;20125;-80
2022/07/17 02:22:47;;;;;;;7.60;2.22;;;9.50;99.90;;;;;;5136316;27;20047;-80
2022/07/17 02:25:13;;;;;;;6.20;2.05;;;9.50;99.90;;;;;;5155153;27;20045;-81
2022/07/17 02:27:40;;;;;;;9.18;2.17;;;9.50;99.90;;;;;;5155461;27;20039;-81
2022/07/17 02:30:09;;;;;;;3.38;2.03;;;9.50;99.90;;;;;;5136040;27;20046;-81
2022/07/17 02:32:35;;;;;;;4.90;2.30;;;9.50;99.90;;;;;;5136269;27;20135;-80
2022/07/17 02:35:01;;;;;;;5.72;1.90;;;9.60;99.90;;;;;;5155221;27;20125;-80
2022/07/17 02:37:27;;;;;;;6.88;2.17;;;9.50;99.90;;;;;;5137391;27;20053;-81
2022/07/17 02:39:52;;;;;;;5.93;2.25;;;9.60;99.90;;;;;;5159575;27;20039;-80
2022/07/17 02:42:20;;;;;;;6.82;2.35;;;9.60;99.90;;;;;;5140914;27;20099;-80
2022/07/17 02:44:46;;;;;;;6.88;2.47;;;9.70;99.90;;;;;;5158541;27;20038;-80
2022/07/17 02:47:12;;;;;;;3.72;1.75;;;9.70;99.90;;;;;;5159430;27;20111;-80
2022/07/17 02:49:41;;;;;;;4.78;1.70;;;9.70;99.90;;;;;;5159530;27;20041;-80
2022/07/17 02:52:07;;;;;;;3.00;2.20;;;9.60;99.90;;;;;;5139845;27;20051;-81
2022/07/17 02:54:32;;;;;;;4.07;1.90;;;9.60;99.90;;;;;;5159185;27;20039;-81
2022/07/17 02:56:58;;;;;;;3.33;1.83;;;9.50;99.90;;;;;;5159324;27;20049;-81
2022/07/17 02:59:24;;;;;;;3.70;2.22;;;9.50;99.90;;;;;;5139725;27;20076;-81
2022/07/17 03:01:49;;;;;;;3.22;1.98;;;9.50;99.90;;;;;;5158859;27;20042;-80
2022/07/17 03:04:15;;;;;;;6.40;1.88;;;9.40;99.90;;;;;;5159035;27;20043;-80
2022/07/17 03:06:41;;;;;;;6.03;1.90;;;9.40;99.90;;;;;;5158265;27;20479;-80
2022/07/17 03:09:06;;;;;;;2.45;1.65;;;9.40;99.90;;;;;;5140359;27;20052;-81
2022/07/17 03:11:32;;;;;;;4.68;2.10;;;9.40;99.90;;;;;;5140325;27;20043;-80
2022/07/17 03:13:58;;;;;;;5.15;2.35;;;9.40;99.90;;;;;;5158233;27;20046;-80
2022/07/17 03:16:24;;;;;;;3.85;2.03;;;9.40;99.90;;;;;;5140412;27;20047;-80
2022/07/17 03:18:55;;;;;;;2.67;1.88;;;9.30;99.90;;;;;;5139933;27;20042;-80
2022/07/17 03:21:21;;;;;;;7.50;2.20;;;9.30;99.90;;;;;;5157918;27;20080;-80
2022/07/17 03:23:47;;;;;;;6.28;1.90;;;9.30;99.90;;;;;;5158660;27;20039;-80
2022/07/17 03:26:12;;;;;;;6.25;2.35;;;9.30;99.90;;;;;;5157887;27;20057;-80
2022/07/17 03:28:38;;;;;;;6.60;2.85;;;9.20;99.90;;;;;;5158554;27;20027;-80
2022/07/17 03:31:04;;;;;;;4.10;2.28;;;9.20;99.90;;;;;;5158669;27;20506;-81
2022/07/17 03:33:30;;;;;;;3.00;2.60;;;9.20;99.90;;;;;;5139047;27;20110;-80
2022/07/17 03:35:56;;;;;;;5.28;2.83;;;9.20;99.90;;;;;;5123053;27;20050;-80
2022/07/17 03:38:21;;;;;;;3.88;2.55;;;9.20;99.90;;;;;;5158404;27;20049;-81
2022/07/17 03:40:50;;;;;;;7.20;2.72;;;9.20;99.90;;;;;;5157617;27;20050;-81
2022/07/17 03:43:16;;;;;;;3.65;2.30;;;9.20;99.90;;;;;;5158104;27;20379;-80
2022/07/17 03:45:42;;;;;;;5.45;2.10;;;9.10;99.90;;;;;;5139521;27;20047;-80
2022/07/17 03:48:08;;;;;;;5.30;2.30;;;9.20;99.90;;;;;;5138702;27;20050;-80
2022/07/17 03:50:34;;;;;;;6.47;2.38;;;9.20;99.90;;;;;;5157542;27;20049;-80
2022/07/17 03:53:00;;;;;;;6.40;2.53;;;9.30;99.90;;;;;;5158146;27;20117;-80
2022/07/17 03:55:25;;;;;;;3.92;2.42;;;9.30;99.90;;;;;;5138832;27;20127;-80
2022/07/17 03:57:51;;;;;;;5.90;2.83;;;9.30;99.90;;;;;;5157956;27;20458;-80
2022/07/17 04:00:17;;;;;;;6.47;2.70;;;9.30;99.90;;;;;;5157855;27;20370;-80
2022/07/17 04:02:43;;;;;;;5.30;2.67;;;9.30;99.90;;;;;;5157269;27;20034;-80
2022/07/17 04:05:09;;;;;;;7.30;2.95;;;9.40;99.90;;;;;;5157954;27;20542;-80
2022/07/17 04:07:40;;;;;;;8.43;2.55;;;9.40;99.90;;;;;;5139708;27;20050;-80
2022/07/17 04:10:07;;;;;;;6.25;2.60;;;9.40;99.90;;;;;;5138454;27;20047;-80
2022/07/17 04:12:33;;;;;;;5.25;3.00;;;9.40;99.90;;;;;;5157925;27;20049;-80
2022/07/17 04:14:59;;;;;;;8.75;2.70;;;9.50;99.90;;;;;;5157562;27;20054;-80
2022/07/17 04:17:25;;;;;;;4.75;2.47;;;9.50;99.90;;;;;;5156741;27;20400;-80
2022/07/17 04:19:51;;;;;;;2.90;2.05;;;9.60;99.90;;;;;;5157971;27;20455;-80
2022/07/17 04:22:17;;;;;;;4.57;2.58;;;9.70;99.90;;;;;;5156953;27;20035;-80
2022/07/17 04:24:43;;;;;;;3.38;2.58;;;9.80;99.90;;;;;;5157685;27;20042;-80
2022/07/17 04:27:09;;;;;;;3.13;2.50;;;9.80;99.90;;;;;;5157600;27;20042;-80
2022/07/17 04:29:36;;;;;;;3.88;3.00;;;9.90;99.90;;;;;;5156909;27;20038;-81
2022/07/17 04:32:02;;;;;;;4.32;2.50;;;10.00;99.90;;;;;;5139072;27;20039;-81
2022/07/17 04:34:28;;;;;;;4.43;2.30;;;10.00;99.90;;;;;;5138849;27;20129;-80
2022/07/17 04:36:54;;;;;;;4.97;2.70;;;10.10;99.90;;;;;;5156553;27;20081;-80
2022/07/17 04:39:20;;;;;;;5.72;2.33;;;10.20;99.90;;;;;;5157249;27;20074;-80
2022/07/17 04:41:46;;;;;;;5.85;2.67;;;10.20;99.90;;;;;;5157176;27;20034;-80
2022/07/17 04:44:12;;;;;;;4.20;2.60;;;10.30;99.90;;;;;;5156519;27;20077;-81
2022/07/17 04:46:37;;;;;;;7.22;2.83;;;10.40;99.90;;;;;;5158166;27;20034;-80
2022/07/17 04:49:03;;;;;;;7.95;3.05;;;10.40;99.90;;;;;;5157994;27;20485;-80
2022/07/17 04:51:32;;;;;;;4.65;2.28;;;10.50;99.90;;;;;;5156317;27;20039;-80
2022/07/17 04:53:58;;;;;;;7.20;2.47;;;10.60;99.90;;;;;;5138748;27;20049;-80
2022/07/17 04:56:24;;;;;;;7.15;2.70;;;10.60;99.90;;;;;;5156986;27;20027;-80
2022/07/17 04:58:49;;;;;;;7.60;2.72;;;10.70;99.90;;;;;;5156141;27;20043;-80
2022/07/17 05:01:15;;;;;;;3.40;2.58;;;10.70;99.90;;;;;;5156890;27;20039;-80
2022/07/17 05:03:41;;;;;;;3.92;1.95;;;10.80;99.90;;;;;;5156859;27;20437;-81
2022/07/17 05:06:07;;;;;;;6.63;2.63;;;10.90;99.90;;;;;;5155975;27;20038;-81
2022/07/17 05:08:34;;;;;;;7.55;2.65;;;10.90;99.90;;;;;;5156930;27;20043;-80
2022/07/17 05:11:00;;;;;;;6.50;2.40;;;11.00;99.90;;;;;;5156479;27;20053;-80
2022/07/17 05:13:26;;;;;;;5.78;2.97;;;11.10;99.90;;;;;;5155693;27;20034;-81
2022/07/17 05:15:51;;;;;;;3.97;3.03;;;11.10;99.90;;;;;;5138143;27;20054;-81
2022/07/17 05:18:17;;;;;;;4.72;2.40;;;11.10;99.90;;;;;;5138102;27;20095;-81
2022/07/17 05:20:43;;;;;;;7.93;2.83;;;11.20;99.90;;;;;;5155682;27;20121;-81
2022/07/17 05:23:09;;;;;;;6.88;2.42;;;11.20;99.90;;;;;;5156554;27;20042;-81
2022/07/17 05:25:35;;;;;;;7.32;3.17;;;11.30;99.90;;;;;;5155737;27;20450;-81
2022/07/17 05:28:01;;;;;;;10.10;3.00;;;11.40;99.90;;;;;;5156386;27;20042;-81
2022/07/17 05:30:27;;;;;;;7.53;2.63;;;11.40;99.90;;;;;;5156268;27;20043;-81
2022/07/17 05:32:53;;;;;;;7.57;2.60;;;11.50;99.90;;;;;;5137225;27;20050;-81
2022/07/17 05:35:19;;;;;;;5.90;2.60;;;11.50;99.90;;;;;;5156240;27;20054;-80
2022/07/17 05:37:45;;;;;;;4.88;2.78;;;11.50;99.90;;;;;;5137844;27;20079;-81
2022/07/17 05:40:11;;;;;;;7.45;3.00;;;11.60;99.90;;;;;;5136784;27;20121;-81
2022/07/17 05:42:37;;;;;;;6.43;2.85;;;11.70;99.90;;;;;;5137814;27;20049;-81
2022/07/17 05:45:03;;;;;;;6.60;3.80;;;11.80;99.90;;;;;;5155858;27;20482;-81
2022/07/17 05:47:30;;;;;;;8.23;2.92;;;11.90;99.90;;;;;;5155459;27;20129;-81
2022/07/17 05:49:55;;;;;;;7.20;2.72;;;11.90;99.90;;;;;;5156150;27;20069;-81
2022/07/17 05:52:24;;;;;;;7.65;2.40;;;12.00;99.90;;;;;;5156066;27;20043;-81
2022/07/17 05:54:50;;;;;;;5.68;2.42;;;12.10;99.90;;;;;;5155152;27;20126;-81
2022/07/17 05:57:16;;;;;;;3.33;2.33;;;12.20;99.90;;;;;;5156065;27;20125;-81
2022/07/17 05:59:42;;;;;;;11.15;2.72;;;12.30;99.90;;;;;;5137511;27;20046;-81
2022/07/17 06:02:07;;;;;;;10.20;3.83;;;12.40;99.90;;;;;;5136223;27;20049;-81
2022/07/17 06:04:39;;;;;;;8.20;2.83;;;12.40;99.90;;;;;;5155980;27;20045;-81
2022/07/17 06:07:05;;;;;;;9.95;3.55;;;12.50;99.90;;;;;;5155735;27;20456;-81
2022/07/17 06:09:32;;;;;;;7.43;2.50;;;12.60;99.90;;;;;;5155091;27;20042;-81
2022/07/17 06:11:57;;;;;;;8.88;3.03;;;12.60;99.90;;;;;;5155401;27;20078;-82
2022/07/17 06:14:24;;;;;;;7.53;2.30;;;12.70;99.90;;;;;;5136928;27;20093;-81
2022/07/17 06:16:50;;;;;;;7.07;2.50;;;12.90;99.90;;;;;;5136749;27;20074;-81
2022/07/17 06:19:16;;;;;;;5.65;2.40;;;13.00;99.90;;;;;;5137065;27;20110;-81
2022/07/17 06:21:42;;;;;;;5.78;2.70;;;13.10;99.90;;;;;;5137281;27;20195;-81
2022/07/17 06:24:08;;;;;;;6.60;2.20;;;13.20;99.90;;;;;;5155064;27;20106;-81
2022/07/17 06:26:34;;;;;;;5.38;2.30;;;13.30;99.90;;;;;;5155575;27;20122;-81
2022/07/17 06:29:00;;;;;;;5.13;2.85;;;13.40;99.90;;;;;;5136196;27;20050;-81
2022/07/17 06:31:25;;;;;;;6.57;2.30;;;13.60;99.90;;;;;;5155335;27;20046;-82
2022/07/17 06:33:51;;;;;;;7.00;2.30;;;13.80;99.90;;;;;;5155490;27;20046;-81
2022/07/17 06:36:17;;;;;;;9.30;2.50;;;14.00;99.90;;;;;;5155463;27;20140;-81
2022/07/17 06:38:44;;;;;;;6.68;1.80;;;14.10;99.90;;;;;;5155547;27;20046;-81
2022/07/17 06:41:09;;;;;;;7.53;2.33;;;14.30;99.90;;;;;;5156417;27;20053;-81
2022/07/17 06:43:35;;;;;;;4.88;1.27;;;14.50;99.90;;;;;;5137981;27;20125;-82
2022/07/17 06:46:01;;;;;;;6.05;1.50;;;14.60;99.90;;;;;;5140077;27;20054;-81
2022/07/17 06:48:27;;;;;;;5.05;1.02;;;14.70;99.90;;;;;;5163383;27;20042;-82
2022/07/17 06:50:53;;;;;;;5.53;0.90;;;14.80;99.90;;;;;;5158788;27;20043;-82
2022/07/17 06:53:19;;;;;;;5.45;1.20;;;15.00;99.90;;;;;;5157378;27;20035;-82
2022/07/17 06:55:44;;;;;;;3.90;1.00;;;15.10;99.90;;;;;;5140821;27;20039;-81
2022/07/17 06:58:10;;;;;;;2.83;1.05;;;15.20;99.90;;;;;;5165349;27;20114;-82
2022/07/17 07:00:37;;;;;;;3.20;0.90;;;15.30;99.90;;;;;;5141547;27;20516;-82
2022/07/17 07:03:03;;;;;;;11.80;1.30;;;15.30;99.90;;;;;;5139603;27;20043;-82
2022/07/17 07:05:28;;;;;;;4.80;1.10;;;15.40;99.90;;;;;;5139632;27;20039;-82
2022/07/17 07:07:54;;;;;;;5.60;1.17;;;15.40;99.90;;;;;;5168001;27;20042;-82
2022/07/17 07:10:20;;;;;;;5.22;1.13;;;15.50;99.90;;;;;;5170619;27;20031;-82
2022/07/17 07:12:46;;;;;;;8.25;1.50;;;15.50;99.90;;;;;;5145518;27;20073;-82
2022/07/17 07:15:13;;;;;;;7.30;1.48;;;15.60;99.90;;;;;;5161764;27;20053;-82
2022/07/17 07:17:40;;;;;;;8.15;1.17;;;15.60;99.90;;;;;;5143996;27;20125;-82
2022/07/17 07:20:07;;;;;;;5.35;1.10;;;15.70;99.90;;;;;;5148786;27;20095;-82
2022/07/17 07:22:33;;;;;;;4.57;1.33;;;15.70;99.90;;;;;;5162630;27;20039;-82
2022/07/17 07:24:59;;;;;;;7.75;1.40;;;15.80;99.90;;;;;;5159804;27;20038;-82
2022/07/17 07:27:25;;;;;;;2.72;0.95;;;15.80;99.90;;;;;;5158623;27;20043;-82
2022/07/17 07:29:51;;;;;;;3.83;1.40;;;15.80;99.90;;;;;;5140761;27;20137;-82
2022/07/17 07:32:19;;;;;;;4.20;0.93;;;15.90;99.90;;;;;;5160821;27;20039;-82
2022/07/17 07:34:45;;;;;;;6.72;1.30;;;16.00;99.90;;;;;;5153245;27;20103;-83
2022/07/17 07:37:10;;;;;;;2.95;1.10;;;16.00;99.90;;;;;;5163044;27;20066;-82
2022/07/17 07:39:36;;;;;;;7.80;1.23;;;16.00;99.90;;;;;;5158881;27;20091;-82
2022/07/17 07:42:02;;;;;;;8.45;1.02;;;16.00;99.90;;;;;;5161598;27;20092;-82
2022/07/17 07:44:28;;;;;;;3.33;1.10;;;16.00;99.90;;;;;;5140414;27;20047;-82
2022/07/17 07:46:54;;;;;;;3.75;1.02;;;16.00;99.90;;;;;;5158015;27;20111;-82
2022/07/17 07:49:19;;;;;;;7.32;1.40;;;16.00;99.90;;;;;;5160510;27;20046;-82
2022/07/17 07:51:45;;;;;;;6.75;1.20;;;16.10;99.90;;;;;;5142651;27;20122;-82
2022/07/17 07:54:11;;;;;;;5.38;1.38;;;16.10;99.90;;;;;;5140346;27;20101;-82
2022/07/17 07:56:37;;;;;;;4.15;1.08;;;16.20;99.90;;;;;;5142259;27;20034;-82
2022/07/17 07:59:03;;;;;;;4.93;0.93;;;16.30;99.90;;;;;;5128913;27;20050;-82
2022/07/17 08:01:29;;;;;;;4.50;1.00;;;16.40;99.90;;;;;;5140577;27;20070;-82
2022/07/17 08:03:55;;;;;;;4.57;1.10;;;16.50;99.90;;;;;;5142242;27;20059;-82
2022/07/17 08:06:21;;;;;;;7.18;1.17;;;16.60;99.90;;;;;;5139523;27;20042;-82
2022/07/17 08:08:47;;;;;;;3.38;0.90;;;16.70;99.90;;;;;;5159693;27;20049;-82
2022/07/17 08:11:14;;;;;;;4.53;0.98;;;16.90;99.90;;;;;;5161859;27;20122;-82
2022/07/17 08:13:40;;;;;;;5.85;1.00;;;16.90;99.90;;;;;;5165164;27;20505;-82
2022/07/17 08:16:07;;;;;;;11.25;1.33;;;17.00;99.90;;;;;;5160008;27;20046;-82
2022/07/17 08:18:32;;;;;;;3.90;1.10;;;17.00;99.90;;;;;;5157942;27;20068;-82
2022/07/17 08:20:58;;;;;;;4.50;1.05;;;17.00;99.90;;;;;;5157927;27;20039;-82
2022/07/17 08:23:27;;;;;;;4.80;1.08;;;17.10;99.90;;;;;;5157158;27;20381;-83
2022/07/17 08:25:52;;;;;;;6.18;0.95;;;17.20;99.90;;;;;;5139214;27;20540;-81
2022/07/17 08:28:18;;;;;;;5.00;1.30;;;17.20;99.90;;;;;;5139028;27;20074;-81
2022/07/17 08:30:44;;;;;;;9.68;1.17;;;17.40;99.90;;;;;;5138536;27;20042;-82
2022/07/17 08:33:10;;;;;;;6.05;1.30;;;17.50;99.90;;;;;;5157559;27;20043;-82
2022/07/17 08:35:36;;;;;;;5.45;1.30;;;17.50;99.90;;;;;;5156979;27;20581;-82
2022/07/17 08:38:03;;;;;;;7.30;1.00;;;17.60;99.90;;;;;;5158408;27;20042;-82
2022/07/17 08:40:32;;;;;;;4.72;0.95;;;17.60;99.90;;;;;;5157290;27;20046;-82
2022/07/17 08:42:59;;;;;;;10.60;1.20;;;17.60;99.90;;;;;;5138587;27;20102;-82
2022/07/17 08:45:25;;;;;;;8.75;1.80;;;17.60;99.90;;;;;;5139040;27;20060;-81
2022/07/17 08:47:52;;;;;;;10.50;1.73;;;17.60;99.90;;;;;;5138840;27;20041;-81
2022/07/17 08:50:26;;;;;;;6.10;1.25;;;17.70;99.90;;;;;;5138208;27;20050;-82
2022/07/17 08:52:52;;;;;;;5.78;1.38;;;17.70;99.90;;;;;;5157525;27;20083;-82
2022/07/17 08:55:18;;;;;;;1.95;0.55;;;17.80;99.90;;;;;;5138677;27;20070;-82
2022/07/17 08:57:45;;;;;;;6.82;1.10;;;17.80;99.90;;;;;;5158891;27;20060;-82
2022/07/17 09:00:15;;;;;;;6.28;1.10;;;17.90;99.90;;;;;;5158669;27;20043;-82
2022/07/17 09:03:03;;;;;;;3.33;1.30;;;17.90;99.90;;;;;;5139175;27;20478;-82
2022/07/17 09:05:35;;;;;;;5.18;1.00;;;18.00;99.90;;;;;;5156413;27;20051;-82
2022/07/17 09:08:02;;;;;;;7.38;1.98;;;18.00;99.90;;;;;;5156857;27;20042;-83
2022/07/17 09:10:41;;;;;;;3.72;1.42;;;18.00;99.90;;;;;;5157557;27;20397;-82
2022/07/17 09:13:28;;;;;;;3.88;1.00;;;18.10;99.90;;;;;;5158531;27;20038;-82
2022/07/17 09:15:58;;;;;;;5.18;1.10;;;18.10;99.90;;;;;;5157395;27;20112;-82
2022/07/17 09:18:24;;;;;;;6.97;1.27;;;18.20;99.90;;;;;;5156211;27;20099;-83
2022/07/17 09:20:55;;;;;;;2.65;0.80;;;18.30;99.90;;;;;;5156736;27;20043;-81
2022/07/17 09:23:23;;;;;;;3.13;0.93;;;18.30;99.90;;;;;;5156861;27;20118;-82
2022/07/17 09:25:54;;;;;;;7.60;0.90;;;18.50;99.90;;;;;;5156767;27;20038;-82
2022/07/17 09:28:20;;;;;;;7.78;1.52;;;18.50;99.90;;;;;;5142945;27;20074;-82
2022/07/17 09:30:49;;;;;;;6.43;1.02;;;18.60;99.90;;;;;;5162154;27;20103;-82
2022/07/17 09:33:21;;;;;;;5.88;1.00;;;18.60;99.90;;;;;;5137569;27;20084;-82
2022/07/17 09:36:05;;;;;;;4.63;0.85;;;18.70;99.90;;;;;;5160159;27;20059;-82
2022/07/17 09:38:33;;;;;;;4.85;1.63;;;18.70;99.90;;;;;;5157637;27;20099;-82
2022/07/17 09:41:15;;;;;;;4.97;1.33;;;18.80;99.90;;;;;;5159530;27;20038;-82
2022/07/17 09:43:46;;;;;;;3.30;1.10;;;18.80;99.90;;;;;;5157460;27;20070;-82
2022/07/17 09:46:18;;;;;;;4.20;1.30;;;18.70;99.90;;;;;;5156300;27;20043;-82
2022/07/17 09:48:49;;;;;;;5.95;2.05;;;18.70;99.90;;;;;;5160799;27;20040;-82
2022/07/17 09:51:37;;;;;;;5.88;1.35;;;18.80;99.90;;;;;;5162451;27;20494;-82
2022/07/17 09:54:05;;;;;;;7.97;1.35;;;18.90;99.90;;;;;;5137231;27;20385;-82
2022/07/17 09:56:33;;;;;;;4.43;1.25;;;18.90;99.90;;;;;;5157000;27;20049;-82
2022/07/17 09:59:12;;;;;;;5.18;1.05;;;19.00;99.90;;;;;;5157140;27;20035;-82
2022/07/17 10:01:41;;;;;;;4.85;1.15;;;19.10;99.90;;;;;;5155317;27;20039;-82
2022/07/17 10:04:07;;;;;;;4.35;0.80;;;19.20;99.90;;;;;;5139186;27;20493;-82
2022/07/17 10:06:34;;;;;;;7.30;1.20;;;19.20;99.90;;;;;;5161866;27;20030;-82
2022/07/17 10:08:59;;;;;;;6.22;1.55;;;19.30;99.90;;;;;;5146499;27;20046;-82
2022/07/17 10:11:30;;;;;;;3.38;1.23;;;19.40;99.90;;;;;;5157344;27;20104;-81
2022/07/17 10:14:01;;;;;;;5.47;1.13;;;19.50;99.90;;;;;;5155169;27;20055;-82
2022/07/17 10:16:30;;;;;;;4.93;1.52;;;19.60;99.90;;;;;;5137537;27;20049;-82
2022/07/17 10:18:57;;;;;;;3.58;1.08;;;19.70;99.90;;;;;;5156445;27;20035;-82
2022/07/17 10:21:25;;;;;;;5.95;1.33;;;19.70;99.90;;;;;;5156480;27;20039;-81
2022/07/17 10:23:50;;;;;;;5.03;1.20;;;19.70;99.90;;;;;;5156070;27;20413;-82
2022/07/17 10:26:17;;;;;;;5.13;1.25;;;19.70;99.90;;;;;;5137284;27;20035;-81
2022/07/17 10:28:44;;;;;;;3.75;0.95;;;19.70;99.90;;;;;;5136668;27;20055;-82
2022/07/17 10:31:25;;;;;;;3.88;1.05;;;19.80;99.90;;;;;;5137285;27;20474;-81
2022/07/17 10:34:09;;;;;;;3.00;1.13;;;19.80;99.90;;;;;;5137043;27;20039;-81
2022/07/17 10:36:40;;;;;;;2.90;1.25;;;19.90;99.90;;;;;;5154950;27;20039;-82
2022/07/17 10:39:20;;;;;;;8.68;2.25;;;19.90;99.90;;;;;;5137006;27;20499;-81
2022/07/17 10:42:01;;;;;;;5.15;1.33;;;20.00;99.90;;;;;;5155559;27;20053;-82
2022/07/17 10:44:28;;;;;;;2.75;1.50;;;20.10;99.90;;;;;;5136950;27;20051;-82
2022/07/17 10:46:55;;;;;;;3.53;1.20;;;20.20;99.90;;;;;;5155589;27;20074;-81
2022/07/17 10:49:22;;;;;;;2.65;1.10;;;20.30;99.90;;;;;;5155025;27;20811;-81
2022/07/17 10:51:47;;;;;;;5.47;1.13;;;20.30;99.90;;;;;;5136944;27;20051;-82
2022/07/17 10:54:13;;;;;;;2.83;0.98;;;20.30;99.90;;;;;;5136952;27;20049;-81
2022/07/17 10:56:46;;;;;;;2.55;0.90;;;20.30;99.90;;;;;;5154565;27;20031;-80
2022/07/17 10:59:12;;;;;;;3.28;1.35;;;20.40;99.90;;;;;;5158463;27;20435;-80
2022/07/17 11:01:38;;;;;;;3.83;1.63;;;20.50;99.90;;;;;;5140599;27;20070;-80
2022/07/17 11:04:06;;;;;;;3.60;0.93;;;20.50;99.90;;;;;;5139918;27;20103;-80
2022/07/17 11:06:36;;;;;;;1.70;0.82;;;20.60;99.90;;;;;;5159110;27;20047;-83
2022/07/17 11:09:10;;;;;;;6.55;1.27;;;20.60;99.90;;;;;;5159082;27;20118;-81
2022/07/17 11:11:48;;;;;;;4.37;1.50;;;20.60;99.90;;;;;;5139919;27;20047;-82
2022/07/17 11:14:27;;;;;;;6.57;1.52;;;20.70;99.90;;;;;;5140465;27;20139;-81
2022/07/17 11:17:01;;;;;;;3.60;0.88;;;20.80;99.90;;;;;;5159003;27;20047;-81
2022/07/17 11:19:36;;;;;;;4.10;1.20;;;20.80;99.90;;;;;;5139423;27;20046;-80
2022/07/17 11:22:12;;;;;;;3.65;1.10;;;20.90;99.90;;;;;;5140870;27;20132;-81
2022/07/17 11:24:38;;;;;;;2.30;0.98;;;20.90;99.90;;;;;;5139827;27;20494;-81
2022/07/17 11:27:04;;;;;;;2.25;0.93;;;21.00;99.90;;;;;;5140426;27;20042;-81
2022/07/17 11:29:35;;;;;;;2.40;1.15;;;21.10;99.90;;;;;;5159881;27;20397;-81
2022/07/17 11:32:01;;;;;;;2.00;1.13;;;21.10;99.90;;;;;;5158629;27;20038;-82
2022/07/17 11:34:27;;;;;;;2.35;1.30;;;21.00;99.90;;;;;;5158644;27;20046;-82
2022/07/17 11:37:03;;;;;;;2.88;1.30;;;21.20;99.90;;;;;;5158725;27;20046;-82
2022/07/17 11:39:37;;;;;;;2.08;1.15;;;21.20;99.90;;;;;;5139112;27;20047;-82
2022/07/17 11:42:03;;;;;;;4.00;1.13;;;21.30;99.90;;;;;;5158603;27;20546;-81
2022/07/17 11:44:29;;;;;;;5.05;1.02;;;21.30;99.90;;;;;;5139884;27;20476;-81
2022/07/17 11:46:55;;;;;;;3.35;1.25;;;21.30;99.90;;;;;;5157629;27;20039;-81
2022/07/17 11:49:34;;;;;;;1.80;1.10;;;21.20;99.90;;;;;;5105469;27;20408;-81
2022/07/17 11:52:10;;;;;;;3.60;1.30;;;21.30;99.90;;;;;;5140265;27;20083;-80
2022/07/17 11:54:50;;;;;;;3.42;1.20;;;21.30;99.90;;;;;;5139345;27;20417;-81
2022/07/17 11:57:18;;;;;;;4.90;1.52;;;21.40;99.90;;;;;;5139813;27;20499;-82
2022/07/17 11:59:45;;;;;;;7.35;1.85;;;21.40;99.90;;;;;;5157538;27;20133;-82
2022/07/17 12:02:18;;;;;;;2.10;1.30;;;21.40;99.90;;;;;;5158300;27;20429;-81
2022/07/17 12:04:52;;;;;;;2.10;1.43;;;21.50;99.90;;;;;;5140295;27;20053;-81
2022/07/17 12:07:19;;;;;;;4.27;1.83;;;21.60;99.90;;;;;;5157798;27;20031;-82
2022/07/17 12:09:45;;;;;;;4.30;1.90;;;21.60;99.90;;;;;;5157076;27;20371;-82
2022/07/17 12:12:25;;;;;;;3.47;1.58;;;21.70;99.90;;;;;;5158447;27;20067;-80
2022/07/17 12:14:58;;;;;;;4.63;1.88;;;21.70;99.90;;;;;;5138872;27;20524;-80
2022/07/17 12:17:38;;;;;;;4.57;1.97;;;21.80;99.90;;;;;;5158276;27;20104;-81
2022/07/17 12:20:05;;;;;;;4.05;2.20;;;21.90;99.90;;;;;;5157592;27;20299;-83
2022/07/17 12:22:41;;;;;;;6.53;2.58;;;21.90;99.90;;;;;;5157245;27;20042;-82
2022/07/17 12:25:07;;;;;;;5.00;2.55;;;21.90;99.90;;;;;;5157948;27;20071;-82
2022/07/17 12:27:33;;;;;;;3.83;2.20;;;22.00;99.90;;;;;;5157093;27;20058;-82
2022/07/17 12:29:59;;;;;;;2.90;1.90;;;22.10;99.90;;;;;;5157670;27;20477;-81
2022/07/17 12:32:24;;;;;;;3.90;2.10;;;22.20;99.90;;;;;;5157739;27;20046;-81
2022/07/17 12:34:50;;;;;;;4.40;2.20;;;22.20;99.90;;;;;;5121382;27;20055;-81
2022/07/17 12:37:18;;;;;;;2.97;2.33;;;22.30;99.90;;;;;;5157997;27;20045;-81
2022/07/17 12:39:45;;;;;;;4.70;2.55;;;22.30;99.90;;;;;;5139126;27;20038;-82
2022/07/17 12:42:11;;;;;;;3.75;2.33;;;22.40;99.90;;;;;;5140968;27;20046;-82
2022/07/17 12:44:37;;;;;;;3.33;2.22;;;22.40;99.90;;;;;;5157804;27;20044;-81
2022/07/17 12:47:03;;;;;;;4.32;2.40;;;22.40;99.90;;;;;;5158022;27;20034;-82
2022/07/17 12:49:30;;;;;;;4.65;2.42;;;22.40;99.90;;;;;;5157609;27;20062;-81